Time;durP1;ratioP1;P1;durP2;ratioP2;P2;SDS_P1;SDS_P2;PMS_P1;PMS_P2;Temp;Humidity;BMP_temperature;BMP_pressure;BME280_temperature;BME280_humidity;BME280_pressure;Samples;Min_cycle;Max_cycle;Signal;HPM_P1;HPM_P2
2021/01/11 00:00:19;;;;;;;8.10;4.77;;;0.70;99.80;;;;;;4361721;33;20182;-75
2021/01/11 00:02:46;;;;;;;10.03;5.43;;;0.70;99.90;;;;;;4362451;33;20506;-75
2021/01/11 00:05:13;;;;;;;9.73;5.33;;;0.70;99.90;;;;;;4361915;33;20205;-75
2021/01/11 00:07:41;;;;;;;9.13;5.33;;;0.70;99.90;;;;;;4363723;33;20140;-75
2021/01/11 00:10:12;;;;;;;8.93;5.23;;;0.80;99.90;;;;;;4363453;33;20475;-75
2021/01/11 00:12:40;;;;;;;7.87;4.93;;;0.80;99.90;;;;;;4365373;33;20158;-75
2021/01/11 00:15:12;;;;;;;10.93;5.10;;;0.90;99.40;;;;;;4365355;33;20152;-75
2021/01/11 00:17:39;;;;;;;8.80;4.80;;;0.80;98.90;;;;;;4363820;33;20132;-75
2021/01/11 00:20:07;;;;;;;9.57;5.20;;;0.80;98.70;;;;;;4364236;33;20202;-74
2021/01/11 00:22:34;;;;;;;8.23;4.57;;;0.80;98.20;;;;;;4363895;33;20386;-75
2021/01/11 00:25:06;;;;;;;8.87;5.07;;;0.80;98.00;;;;;;4363881;33;20202;-75
2021/01/11 00:27:32;;;;;;;9.67;5.13;;;0.70;98.00;;;;;;4363190;33;20620;-75
2021/01/11 00:30:00;;;;;;;9.20;5.40;;;0.70;98.70;;;;;;4365226;32;20160;-75
2021/01/11 00:32:26;;;;;;;9.63;5.40;;;0.70;98.70;;;;;;4366526;32;20194;-75
2021/01/11 00:34:53;;;;;;;9.70;5.00;;;0.80;98.70;;;;;;4367902;32;20473;-75
2021/01/11 00:37:19;;;;;;;11.53;6.03;;;0.80;98.60;;;;;;4367985;32;20132;-75
2021/01/11 00:39:45;;;;;;;10.17;5.90;;;0.80;98.10;;;;;;4366544;32;20139;-75
2021/01/11 00:42:12;;;;;;;10.97;5.83;;;0.90;97.80;;;;;;4365910;32;20137;-75
2021/01/11 00:44:38;;;;;;;11.63;6.17;;;0.80;98.40;;;;;;4366695;32;20177;-75
2021/01/11 00:47:05;;;;;;;12.20;6.00;;;0.80;98.40;;;;;;4366458;32;20171;-75
2021/01/11 00:49:31;;;;;;;10.27;5.93;;;0.80;98.50;;;;;;4366331;32;20132;-75
2021/01/11 00:51:58;;;;;;;12.40;6.40;;;0.80;99.00;;;;;;4366338;32;20398;-75
2021/01/11 00:54:25;;;;;;;12.73;6.60;;;0.80;98.70;;;;;;4365452;32;20175;-75
2021/01/11 00:56:51;;;;;;;12.53;6.73;;;0.80;98.70;;;;;;4367676;32;20145;-75
2021/01/11 00:59:18;;;;;;;13.17;6.83;;;0.80;99.10;;;;;;4365700;32;20151;-75
2021/01/11 01:01:51;;;;;;;13.40;7.50;;;0.90;98.50;;;;;;4367103;32;20145;-76
2021/01/11 01:04:18;;;;;;;14.03;7.27;;;0.90;98.90;;;;;;4367169;32;20136;-76
2021/01/11 01:06:45;;;;;;;14.00;7.60;;;0.80;98.80;;;;;;4366130;32;20203;-75
2021/01/11 01:09:12;;;;;;;16.03;7.67;;;0.80;98.70;;;;;;4366026;32;20132;-75
2021/01/11 01:11:40;;;;;;;14.17;7.23;;;0.90;98.80;;;;;;4365991;32;20207;-75
2021/01/11 01:14:07;;;;;;;15.40;8.03;;;0.90;98.70;;;;;;4366025;32;20168;-74
2021/01/11 01:16:34;;;;;;;16.37;8.40;;;0.80;99.00;;;;;;4366049;32;20389;-75
2021/01/11 01:19:01;;;;;;;16.37;8.03;;;0.80;99.40;;;;;;4365936;32;20186;-75
2021/01/11 01:21:28;;;;;;;15.10;8.03;;;0.90;99.30;;;;;;4365956;32;20161;-75
2021/01/11 01:23:54;;;;;;;19.40;9.17;;;0.80;99.50;;;;;;4365964;32;20159;-75
2021/01/11 01:26:20;;;;;;;18.73;9.77;;;0.80;99.50;;;;;;4365861;32;20525;-75
2021/01/11 01:28:55;;;;;;;18.97;8.87;;;0.90;99.80;;;;;;4367353;32;20131;-75
2021/01/11 01:31:21;;;;;;;17.20;8.70;;;0.80;99.90;;;;;;4365734;32;20196;-75
2021/01/11 01:33:48;;;;;;;16.47;9.10;;;0.80;99.90;;;;;;4365277;32;20547;-75
2021/01/11 01:36:17;;;;;;;22.30;10.33;;;0.80;99.90;;;;;;4365520;32;20439;-75
2021/01/11 01:38:43;;;;;;;20.27;10.30;;;0.90;99.90;;;;;;4365788;32;20159;-74
2021/01/11 01:41:09;;;;;;;18.50;9.87;;;0.80;99.90;;;;;;4365334;32;20338;-74
2021/01/11 01:43:37;;;;;;;19.33;9.10;;;0.80;99.90;;;;;;4365688;32;20205;-74
2021/01/11 01:46:05;;;;;;;23.77;10.23;;;0.80;99.90;;;;;;4365680;32;20140;-74
2021/01/11 01:48:32;;;;;;;20.20;9.97;;;0.70;99.90;;;;;;4365543;32;20179;-74
2021/01/11 01:50:59;;;;;;;20.80;10.47;;;0.80;99.90;;;;;;4365529;32;20199;-74
2021/01/11 01:53:25;;;;;;;23.90;11.07;;;0.80;99.90;;;;;;4365405;32;20202;-74
2021/01/11 01:55:54;;;;;;;20.80;10.90;;;0.80;99.90;;;;;;4366360;32;20386;-75
2021/01/11 01:58:21;;;;;;;21.33;10.73;;;0.90;99.90;;;;;;4364905;32;20475;-75
2021/01/11 02:00:48;;;;;;;22.43;10.70;;;0.90;99.90;;;;;;4365368;32;20144;-74
2021/01/11 02:03:15;;;;;;;23.20;11.87;;;0.80;99.90;;;;;;4366722;32;20158;-76
2021/01/11 02:05:41;;;;;;;25.87;11.67;;;0.90;99.90;;;;;;4366174;32;20470;-75
2021/01/11 02:08:34;;;;;;;23.93;11.87;;;0.90;99.90;;;;;;4366707;32;20227;-75
2021/01/11 02:11:12;;;;;;;24.17;11.33;;;0.90;99.90;;;;;;4366677;32;20137;-75
2021/01/11 02:14:07;;;;;;;26.47;12.60;;;0.90;99.90;;;;;;4366688;32;20211;-75
2021/01/11 02:16:55;;;;;;;25.70;12.80;;;0.90;99.90;;;;;;4365256;32;20478;-75
2021/01/11 02:19:40;;;;;;;25.40;12.40;;;0.90;99.90;;;;;;4365849;32;20137;-75
2021/01/11 02:22:11;;;;;;;24.87;12.50;;;0.80;99.90;;;;;;4366535;32;20167;-74
2021/01/11 02:24:55;;;;;;;27.47;12.43;;;0.80;99.90;;;;;;4366793;32;20140;-75
2021/01/11 02:27:53;;;;;;;28.30;12.53;;;0.80;99.90;;;;;;4365187;32;20159;-75
2021/01/11 02:30:37;;;;;;;25.43;12.10;;;0.80;99.90;;;;;;4364894;32;20132;-75
2021/01/11 02:33:12;;;;;;;25.10;12.40;;;0.90;99.90;;;;;;4365713;32;20414;-75
2021/01/11 02:35:47;;;;;;;24.73;11.60;;;0.60;99.90;;;;;;4364745;32;20189;-75
2021/01/11 02:38:20;;;;;;;23.23;11.63;;;0.60;99.90;;;;;;4364833;32;20140;-75
2021/01/11 02:40:48;;;;;;;24.47;12.33;;;0.60;99.90;;;;;;4366276;32;20149;-75
2021/01/11 02:43:14;;;;;;;22.10;11.50;;;0.60;99.90;;;;;;4364805;32;20533;-75
2021/01/11 02:45:41;;;;;;;25.33;12.03;;;0.70;99.90;;;;;;4366130;32;20140;-75
2021/01/11 02:48:21;;;;;;;21.40;11.13;;;0.60;99.90;;;;;;4366101;32;20399;-75
2021/01/11 02:50:55;;;;;;;24.10;11.80;;;0.60;99.90;;;;;;4366054;32;20151;-75
2021/01/11 02:53:42;;;;;;;22.37;11.37;;;0.60;99.90;;;;;;4364408;32;20202;-75
2021/01/11 02:56:13;;;;;;;23.17;11.60;;;0.60;99.90;;;;;;4364813;32;20140;-75
2021/01/11 02:59:13;;;;;;;21.77;11.53;;;0.60;99.90;;;;;;4366309;32;20144;-75
2021/01/11 03:01:47;;;;;;;27.80;12.23;;;0.70;99.90;;;;;;4365972;32;20140;-75
2021/01/11 03:04:20;;;;;;;23.73;12.07;;;0.70;99.90;;;;;;4366206;32;20139;-75
2021/01/11 03:07:00;;;;;;;26.37;12.33;;;0.70;99.90;;;;;;4365950;32;20136;-75
2021/01/11 03:09:31;;;;;;;25.77;12.33;;;0.70;99.90;;;;;;4364553;32;20206;-75
2021/01/11 03:11:58;;;;;;;29.47;12.73;;;0.70;99.90;;;;;;4364416;32;20155;-75
2021/01/11 03:14:25;;;;;;;28.33;13.27;;;0.70;99.90;;;;;;4364634;32;20191;-75
2021/01/11 03:16:53;;;;;;;28.93;13.10;;;0.70;99.90;;;;;;4365837;32;20230;-75
2021/01/11 03:19:20;;;;;;;26.87;12.20;;;0.60;99.90;;;;;;4364364;32;20151;-76
2021/01/11 03:21:46;;;;;;;26.30;12.67;;;0.60;99.90;;;;;;4363801;32;20140;-75
2021/01/11 03:24:17;;;;;;;25.33;13.03;;;0.70;99.90;;;;;;4364652;32;20277;-75
2021/01/11 03:26:44;;;;;;;25.47;12.30;;;0.70;99.90;;;;;;4364350;32;20137;-75
2021/01/11 03:29:15;;;;;;;28.30;12.77;;;0.70;99.90;;;;;;4364236;32;20136;-75
2021/01/11 03:31:42;;;;;;;25.43;11.83;;;0.70;99.90;;;;;;4364271;32;20454;-75
2021/01/11 03:34:10;;;;;;;25.83;12.93;;;0.70;99.90;;;;;;4365602;32;20474;-75
2021/01/11 03:36:38;;;;;;;24.27;11.83;;;0.70;99.90;;;;;;4363738;32;20435;-75
2021/01/11 03:39:06;;;;;;;27.10;11.73;;;0.60;99.90;;;;;;4364216;32;20144;-75
2021/01/11 03:41:40;;;;;;;24.87;11.80;;;0.60;99.90;;;;;;4364384;32;20542;-74
2021/01/11 03:44:08;;;;;;;22.57;11.23;;;0.60;99.90;;;;;;4364775;32;20140;-75
2021/01/11 03:46:34;;;;;;;24.80;11.93;;;0.50;99.90;;;;;;4364181;33;20140;-75
2021/01/11 03:49:02;;;;;;;22.97;11.90;;;0.50;99.90;;;;;;4364002;33;20164;-75
2021/01/11 03:51:28;;;;;;;24.57;11.77;;;0.50;99.90;;;;;;4365483;33;20174;-75
2021/01/11 03:53:55;;;;;;;21.70;11.57;;;0.60;99.90;;;;;;4364042;33;20175;-76
2021/01/11 03:56:22;;;;;;;24.93;11.73;;;0.70;99.90;;;;;;4363843;33;20147;-75
2021/01/11 03:58:48;;;;;;;22.00;10.60;;;0.60;99.90;;;;;;4363552;33;20414;-74
2021/01/11 04:01:15;;;;;;;21.73;10.63;;;0.50;99.90;;;;;;4364105;33;20170;-75
2021/01/11 04:03:41;;;;;;;21.63;10.37;;;0.50;99.90;;;;;;4363977;33;20183;-75
2021/01/11 04:06:08;;;;;;;20.43;10.40;;;0.50;99.90;;;;;;4368095;32;20140;-75
2021/01/11 04:08:34;;;;;;;23.20;10.67;;;0.50;99.90;;;;;;4367289;32;20169;-75
2021/01/11 04:11:01;;;;;;;20.93;10.10;;;0.50;99.90;;;;;;4366974;32;20136;-75
2021/01/11 04:13:27;;;;;;;22.03;10.57;;;0.40;99.90;;;;;;4366950;32;20239;-75
2021/01/11 04:15:57;;;;;;;23.53;11.10;;;0.40;99.90;;;;;;4368731;32;20450;-75
2021/01/11 04:18:23;;;;;;;20.20;10.63;;;0.50;99.90;;;;;;4366366;32;20221;-75
2021/01/11 04:20:50;;;;;;;22.73;10.90;;;0.60;99.90;;;;;;4354790;32;20182;-76
2021/01/11 04:23:16;;;;;;;19.97;10.27;;;0.60;99.90;;;;;;4366665;32;20418;-74
2021/01/11 04:25:43;;;;;;;20.70;10.67;;;0.50;99.90;;;;;;4365125;32;20270;-74
2021/01/11 04:28:09;;;;;;;22.07;10.80;;;0.50;99.90;;;;;;4365518;32;20159;-74
2021/01/11 04:30:35;;;;;;;19.77;10.20;;;0.50;99.90;;;;;;4367845;32;20136;-74
2021/01/11 04:33:02;;;;;;;19.17;10.83;;;0.60;99.90;;;;;;4366572;32;20140;-74
2021/01/11 04:35:29;;;;;;;21.27;10.83;;;0.50;99.90;;;;;;4367327;32;20170;-74
2021/01/11 04:37:56;;;;;;;23.57;10.63;;;0.50;99.90;;;;;;4366325;32;20206;-74
2021/01/11 04:40:24;;;;;;;21.50;11.43;;;0.50;99.90;;;;;;4366634;32;20191;-75
2021/01/11 04:42:56;;;;;;;19.23;10.67;;;0.50;99.90;;;;;;4366505;32;20132;-74
2021/01/11 04:45:24;;;;;;;20.97;10.10;;;0.60;99.90;;;;;;4367646;32;20554;-75
2021/01/11 04:47:56;;;;;;;20.43;10.40;;;0.50;99.90;;;;;;4366446;32;20136;-75
2021/01/11 04:50:23;;;;;;;20.23;10.50;;;0.50;99.90;;;;;;4366349;32;20222;-74
2021/01/11 04:52:50;;;;;;;21.03;10.60;;;0.50;99.90;;;;;;4367058;32;20175;-74
2021/01/11 04:55:19;;;;;;;20.50;10.23;;;0.50;99.90;;;;;;4366299;32;20167;-74
2021/01/11 04:57:56;;;;;;;20.67;10.80;;;0.50;99.90;;;;;;4366335;32;20158;-74
2021/01/11 05:00:27;;;;;;;18.60;9.97;;;0.50;99.90;;;;;;4367270;32;20190;-74
2021/01/11 05:02:58;;;;;;;22.50;10.00;;;0.50;99.90;;;;;;4367700;32;20154;-74
2021/01/11 05:05:26;;;;;;;18.90;9.77;;;0.40;99.90;;;;;;4366137;32;20132;-74
2021/01/11 05:07:53;;;;;;;19.40;10.30;;;0.40;99.90;;;;;;4365888;32;20150;-74
2021/01/11 05:10:26;;;;;;;20.23;10.30;;;0.50;99.90;;;;;;4367573;32;20136;-74
2021/01/11 05:13:01;;;;;;;18.70;10.40;;;0.50;99.90;;;;;;4367813;32;20398;-74
2021/01/11 05:15:30;;;;;;;22.87;10.50;;;0.50;99.90;;;;;;4365958;32;20194;-74
2021/01/11 05:17:58;;;;;;;19.53;10.33;;;0.40;99.90;;;;;;4364815;33;20187;-74
2021/01/11 05:20:27;;;;;;;18.53;10.03;;;0.40;99.90;;;;;;4366937;32;20178;-74
2021/01/11 05:22:56;;;;;;;19.90;9.80;;;0.50;99.90;;;;;;4367263;32;20215;-75
2021/01/11 05:25:24;;;;;;;19.70;10.10;;;0.40;99.90;;;;;;4365836;32;20396;-74
2021/01/11 05:28:14;;;;;;;19.60;10.10;;;0.40;99.90;;;;;;4365849;32;20204;-74
2021/01/11 05:30:42;;;;;;;22.63;11.30;;;0.40;99.90;;;;;;4365789;32;20137;-74
2021/01/11 05:33:17;;;;;;;20.60;10.33;;;0.40;99.90;;;;;;4365754;32;20226;-74
2021/01/11 05:35:46;;;;;;;20.37;10.83;;;0.40;99.90;;;;;;4370990;32;20183;-74
2021/01/11 05:38:19;;;;;;;20.57;11.20;;;0.40;99.90;;;;;;4374664;32;20221;-73
2021/01/11 05:40:47;;;;;;;20.00;10.57;;;0.40;99.90;;;;;;4365554;32;20387;-75
2021/01/11 05:43:21;;;;;;;22.57;11.03;;;0.40;99.90;;;;;;4365188;32;20182;-74
2021/01/11 05:45:49;;;;;;;20.03;10.57;;;0.50;99.90;;;;;;4365680;32;20186;-74
2021/01/11 05:48:16;;;;;;;23.50;11.40;;;0.50;99.90;;;;;;4365627;32;20231;-74
2021/01/11 05:50:50;;;;;;;22.43;11.20;;;0.40;99.90;;;;;;4366925;32;20144;-74
2021/01/11 05:53:21;;;;;;;23.57;11.20;;;0.40;99.90;;;;;;4366134;32;20149;-74
2021/01/11 05:55:49;;;;;;;21.00;11.13;;;0.40;99.90;;;;;;4367169;32;20143;-74
2021/01/11 05:58:18;;;;;;;23.33;11.50;;;0.30;99.90;;;;;;4365545;32;20136;-74
2021/01/11 06:00:45;;;;;;;23.13;11.70;;;0.10;99.90;;;;;;4365555;32;20140;-74
2021/01/11 06:03:12;;;;;;;21.90;11.50;;;0.10;99.90;;;;;;4365406;32;20199;-74
2021/01/11 06:05:40;;;;;;;24.57;11.57;;;0.10;99.90;;;;;;4365330;32;20150;-74
2021/01/11 06:08:08;;;;;;;24.37;12.07;;;0.20;99.90;;;;;;4365323;32;20158;-74
2021/01/11 06:10:35;;;;;;;22.23;10.97;;;0.20;99.90;;;;;;4365291;32;20132;-74
2021/01/11 06:13:10;;;;;;;25.20;11.90;;;0.20;99.90;;;;;;4365193;32;20137;-74
2021/01/11 06:15:45;;;;;;;23.00;11.53;;;0.20;99.90;;;;;;4361941;32;20148;-77
2021/01/11 06:18:33;;;;;;;22.70;11.37;;;0.10;99.90;;;;;;4347504;32;20294;-75
2021/01/11 06:20:59;;;;;;;23.80;11.67;;;0.10;99.90;;;;;;4372542;32;20140;-74
2021/01/11 06:23:26;;;;;;;23.83;11.33;;;0.00;99.90;;;;;;4369304;32;20199;-74
2021/01/11 06:25:55;;;;;;;25.07;12.27;;;0.00;99.90;;;;;;4372903;32;20198;-75
2021/01/11 06:28:30;;;;;;;23.97;12.13;;;0.00;99.90;;;;;;4362189;32;20195;-74
2021/01/11 06:31:10;;;;;;;24.60;12.10;;;0.00;99.90;;;;;;4363219;32;20485;-75
2021/01/11 06:33:38;;;;;;;24.60;11.60;;;0.00;99.90;;;;;;4364940;32;20152;-75
2021/01/11 06:36:37;;;;;;;24.27;12.33;;;0.00;99.90;;;;;;4368750;32;20161;-74
2021/01/11 06:39:08;;;;;;;24.97;12.00;;;0.00;99.90;;;;;;4352020;33;20474;-74
2021/01/11 06:41:36;;;;;;;26.60;12.53;;;-0.10;99.90;;;;;;4365967;32;20466;-74
2021/01/11 06:44:05;;;;;;;26.87;12.70;;;0.00;99.90;;;;;;4365404;32;20161;-72
2021/01/11 06:46:31;;;;;;;27.07;13.57;;;-0.20;99.90;;;;;;4364727;32;20186;-72
2021/01/11 06:49:01;;;;;;;28.17;13.53;;;-0.10;99.90;;;;;;4373031;32;20184;-70
2021/01/11 06:51:41;;;;;;;27.67;13.27;;;-0.20;99.90;;;;;;4369337;32;20136;-69
2021/01/11 06:54:15;;;;;;;28.20;12.83;;;-0.20;99.90;;;;;;4352000;32;20165;-69
2021/01/11 06:56:43;;;;;;;28.40;12.83;;;-0.20;99.90;;;;;;4361965;33;20163;-71
2021/01/11 06:59:17;;;;;;;27.87;14.07;;;-0.20;99.90;;;;;;4364269;32;20425;-68
2021/01/11 07:01:45;;;;;;;29.70;13.77;;;-0.20;99.90;;;;;;4369874;32;20227;-71
2021/01/11 07:04:36;;;;;;;26.77;12.83;;;-0.30;99.90;;;;;;4367544;32;20176;-70
2021/01/11 07:07:03;;;;;;;26.93;12.70;;;-0.20;99.90;;;;;;4363519;32;20214;-69
2021/01/11 07:09:29;;;;;;;28.63;13.43;;;-0.20;99.90;;;;;;4365706;32;20163;-70
2021/01/11 07:12:03;;;;;;;28.70;13.87;;;-0.20;99.90;;;;;;4365566;32;20158;-70
2021/01/11 07:15:01;;;;;;;25.80;13.40;;;-0.10;99.90;;;;;;4367721;32;20155;-71
2021/01/11 07:17:35;;;;;;;29.57;13.53;;;-0.10;99.90;;;;;;4365412;32;20192;-69
2021/01/11 07:20:03;;;;;;;33.23;14.27;;;-0.10;99.90;;;;;;4351934;33;20421;-69
2021/01/11 07:22:30;;;;;;;27.93;13.70;;;-0.10;99.90;;;;;;4363592;32;20148;-68
2021/01/11 07:24:56;;;;;;;27.93;14.30;;;-0.20;99.90;;;;;;4364188;32;20190;-69
2021/01/11 07:27:23;;;;;;;26.30;13.57;;;-0.20;99.90;;;;;;4364149;32;20178;-70
2021/01/11 07:29:55;;;;;;;30.40;13.53;;;-0.20;99.90;;;;;;4364411;32;20183;-69
2021/01/11 07:32:23;;;;;;;29.70;14.77;;;-0.20;99.90;;;;;;4361604;32;20173;-69
2021/01/11 07:34:49;;;;;;;31.53;14.77;;;-0.20;99.90;;;;;;4371610;32;20144;-71
2021/01/11 07:37:16;;;;;;;28.27;14.50;;;-0.20;99.90;;;;;;4371337;32;20476;-72
2021/01/11 07:39:42;;;;;;;30.63;14.53;;;-0.20;99.90;;;;;;4366687;32;20152;-70
2021/01/11 07:42:09;;;;;;;31.73;14.20;;;-0.10;99.90;;;;;;4363573;32;20140;-68
2021/01/11 07:44:37;;;;;;;28.73;14.37;;;0.00;99.90;;;;;;4364639;32;20145;-68
2021/01/11 07:47:09;;;;;;;30.97;15.00;;;0.00;99.90;;;;;;4363887;33;20237;-69
2021/01/11 07:49:40;;;;;;;29.43;14.60;;;-0.10;99.90;;;;;;4365333;33;20174;-69
2021/01/11 07:52:14;;;;;;;34.23;15.87;;;-0.10;99.90;;;;;;4365972;32;20213;-71
2021/01/11 07:54:41;;;;;;;38.60;16.80;;;0.10;99.90;;;;;;4362676;32;20451;-72
2021/01/11 07:57:09;;;;;;;36.10;16.73;;;0.40;99.90;;;;;;4365081;33;20166;-72
2021/01/11 07:59:37;;;;;;;37.60;16.20;;;0.50;99.90;;;;;;4363882;33;20178;-72
2021/01/11 08:02:14;;;;;;;38.23;17.03;;;0.50;99.90;;;;;;4367938;32;20213;-71
2021/01/11 08:04:42;;;;;;;38.50;16.60;;;0.70;99.90;;;;;;4370668;32;20190;-72
2021/01/11 08:07:10;;;;;;;38.63;17.03;;;1.00;99.90;;;;;;4369966;32;20140;-71
2021/01/11 08:09:38;;;;;;;38.37;16.40;;;1.30;99.90;;;;;;4372585;32;20144;-70
2021/01/11 08:12:11;;;;;;;39.73;17.80;;;1.30;99.90;;;;;;4371730;32;20178;-72
2021/01/11 08:14:42;;;;;;;40.77;17.80;;;1.30;99.90;;;;;;4374096;32;20235;-72
2021/01/11 08:17:19;;;;;;;38.80;17.27;;;1.30;99.90;;;;;;4380244;32;20212;-72
2021/01/11 08:19:57;;;;;;;38.80;17.00;;;1.40;99.90;;;;;;4379133;32;20139;-71
2021/01/11 08:22:28;;;;;;;40.67;18.87;;;1.50;99.90;;;;;;4379721;32;20182;-71
2021/01/11 08:24:59;;;;;;;40.60;18.00;;;1.60;99.90;;;;;;4379577;32;20163;-71
2021/01/11 08:27:43;;;;;;;40.57;18.13;;;1.70;99.90;;;;;;4380063;32;20155;-71
2021/01/11 08:30:15;;;;;;;46.10;19.40;;;2.00;99.90;;;;;;4378954;32;20136;-71
2021/01/11 08:32:43;;;;;;;38.90;18.07;;;1.90;99.90;;;;;;4378676;32;20139;-71
2021/01/11 08:35:14;;;;;;;37.97;18.10;;;1.80;99.90;;;;;;4378317;32;20144;-71
2021/01/11 08:37:42;;;;;;;41.73;18.87;;;2.00;99.90;;;;;;4380172;32;20378;-70
2021/01/11 08:40:19;;;;;;;40.77;18.70;;;1.90;99.90;;;;;;4378851;32;20193;-70
2021/01/11 08:42:47;;;;;;;41.70;18.70;;;2.00;99.90;;;;;;4379568;32;20128;-70
2021/01/11 08:45:53;;;;;;;42.47;18.70;;;1.90;99.90;;;;;;4378694;32;20482;-70
2021/01/11 08:48:26;;;;;;;40.53;18.40;;;1.90;99.90;;;;;;4316962;33;20184;-71
2021/01/11 08:50:53;;;;;;;43.53;18.73;;;1.80;99.90;;;;;;4319199;33;20468;-71
2021/01/11 08:53:19;;;;;;;44.70;19.03;;;1.70;99.90;;;;;;4319747;33;20394;-71
2021/01/11 08:56:02;;;;;;;39.33;18.27;;;1.60;99.90;;;;;;4319602;33;20161;-71
2021/01/11 08:58:30;;;;;;;42.43;18.10;;;1.50;99.90;;;;;;4309432;33;20149;-72
2021/01/11 09:01:09;;;;;;;38.90;17.40;;;1.30;99.90;;;;;;4304166;33;20157;-73
2021/01/11 09:03:42;;;;;;;40.50;17.47;;;1.20;99.90;;;;;;4310138;33;20277;-73
2021/01/11 09:06:09;;;;;;;40.33;17.27;;;1.10;99.90;;;;;;4307178;33;20201;-74
2021/01/11 09:08:36;;;;;;;38.10;18.13;;;1.00;99.90;;;;;;4305211;33;20145;-75
2021/01/11 09:11:11;;;;;;;40.27;18.07;;;1.00;99.90;;;;;;4303014;33;20232;-74
2021/01/11 09:13:38;;;;;;;40.23;18.30;;;1.00;99.90;;;;;;4306526;33;20213;-73
2021/01/11 09:16:16;;;;;;;42.43;17.40;;;1.00;99.90;;;;;;4303072;33;20176;-73
2021/01/11 09:18:42;;;;;;;41.17;17.33;;;1.00;99.90;;;;;;4309719;33;20240;-73
2021/01/11 09:21:09;;;;;;;38.53;17.00;;;1.00;99.90;;;;;;4313925;32;20188;-73
2021/01/11 09:23:35;;;;;;;37.80;16.00;;;1.00;99.90;;;;;;4372741;32;20178;-74
2021/01/11 09:26:02;;;;;;;39.30;17.57;;;1.10;99.90;;;;;;4369663;32;20354;-73
2021/01/11 09:28:28;;;;;;;38.70;17.03;;;1.00;99.90;;;;;;4346268;33;20160;-72
2021/01/11 09:30:55;;;;;;;39.57;17.10;;;1.10;99.90;;;;;;4360895;32;20231;-73
2021/01/11 09:33:22;;;;;;;38.27;16.63;;;1.10;99.90;;;;;;4365089;32;20132;-71
2021/01/11 09:35:48;;;;;;;36.83;15.77;;;1.10;99.90;;;;;;4365172;32;20148;-72
2021/01/11 09:38:16;;;;;;;34.97;15.30;;;1.10;99.90;;;;;;4365542;32;20505;-73
2021/01/11 09:40:42;;;;;;;30.53;14.23;;;1.10;99.90;;;;;;4364768;32;20464;-74
2021/01/11 09:43:12;;;;;;;36.73;15.23;;;1.10;99.90;;;;;;4365462;32;20149;-73
2021/01/11 09:45:39;;;;;;;35.77;15.60;;;1.10;99.90;;;;;;4364821;32;20228;-71
2021/01/11 09:48:05;;;;;;;34.67;15.07;;;1.20;99.90;;;;;;4365242;32;20151;-72
2021/01/11 09:50:32;;;;;;;34.47;14.73;;;1.20;99.90;;;;;;4366548;32;20148;-72
2021/01/11 09:53:02;;;;;;;31.30;14.70;;;1.30;99.90;;;;;;4373125;32;20191;-72
2021/01/11 09:55:28;;;;;;;31.27;14.23;;;1.30;99.90;;;;;;4364252;32;20170;-73
2021/01/11 09:57:55;;;;;;;31.13;14.03;;;1.30;99.90;;;;;;4366546;32;20240;-72
2021/01/11 10:00:22;;;;;;;31.27;14.47;;;1.30;99.90;;;;;;4364594;32;20149;-70
2021/01/11 10:02:49;;;;;;;31.27;14.00;;;1.30;99.90;;;;;;4365423;32;20467;-70
2021/01/11 10:05:17;;;;;;;32.40;14.47;;;1.30;99.90;;;;;;4364401;32;20156;-73
2021/01/11 10:07:45;;;;;;;31.93;14.33;;;1.30;99.90;;;;;;4365449;32;20159;-70
2021/01/11 10:10:13;;;;;;;33.47;14.07;;;1.30;99.90;;;;;;4365536;32;20526;-71
2021/01/11 10:12:39;;;;;;;31.10;14.03;;;1.30;99.90;;;;;;4366581;32;20187;-72
2021/01/11 10:15:06;;;;;;;32.70;14.53;;;1.30;99.90;;;;;;4365170;32;20259;-74
2021/01/11 10:17:33;;;;;;;27.77;13.60;;;1.40;99.90;;;;;;4364426;32;20159;-72
2021/01/11 10:19:59;;;;;;;35.77;14.83;;;1.40;99.90;;;;;;4365033;32;20194;-71
2021/01/11 10:22:26;;;;;;;33.43;14.73;;;1.40;99.90;;;;;;4368062;32;20148;-71
2021/01/11 10:24:53;;;;;;;30.53;13.93;;;1.40;99.90;;;;;;4366358;32;20204;-71
2021/01/11 10:27:19;;;;;;;30.10;13.57;;;1.50;99.90;;;;;;4374859;32;20167;-73
2021/01/11 10:29:45;;;;;;;29.07;13.53;;;1.60;99.90;;;;;;4366307;32;20140;-74
2021/01/11 10:32:12;;;;;;;30.60;13.63;;;1.60;99.90;;;;;;4364802;32;20486;-74
2021/01/11 10:34:39;;;;;;;29.43;13.10;;;1.60;99.90;;;;;;4368216;32;20151;-76
2021/01/11 10:37:05;;;;;;;32.53;13.97;;;1.70;99.90;;;;;;4365586;32;20139;-74
2021/01/11 10:39:32;;;;;;;30.47;13.27;;;1.70;99.90;;;;;;4364656;32;20133;-74
2021/01/11 10:41:58;;;;;;;27.63;12.83;;;1.70;99.90;;;;;;4364471;32;20398;-74
2021/01/11 10:44:26;;;;;;;28.73;13.23;;;1.80;99.90;;;;;;4364323;32;20136;-75
2021/01/11 10:46:54;;;;;;;25.33;12.07;;;1.80;99.90;;;;;;4364729;32;20143;-74
2021/01/11 10:49:21;;;;;;;26.17;11.90;;;1.90;99.90;;;;;;4365860;32;20186;-75
2021/01/11 10:51:48;;;;;;;27.20;11.93;;;1.80;99.90;;;;;;4366227;32;20136;-73
2021/01/11 10:54:15;;;;;;;27.27;11.87;;;1.80;99.90;;;;;;4364383;32;20183;-74
2021/01/11 10:56:42;;;;;;;30.57;12.40;;;1.80;99.90;;;;;;4365880;32;20541;-73
2021/01/11 10:59:10;;;;;;;26.03;11.50;;;1.80;99.90;;;;;;4364282;32;20194;-74
2021/01/11 11:01:37;;;;;;;30.97;13.60;;;1.80;99.90;;;;;;4365466;32;20143;-74
2021/01/11 11:04:04;;;;;;;30.00;12.83;;;1.80;99.90;;;;;;4364597;32;20491;-73
2021/01/11 11:06:30;;;;;;;31.27;13.57;;;1.90;99.90;;;;;;4368653;32;20137;-70
2021/01/11 11:08:57;;;;;;;31.93;13.93;;;1.90;99.90;;;;;;4371514;32;20478;-72
2021/01/11 11:11:23;;;;;;;30.13;13.47;;;2.00;99.90;;;;;;4373459;32;20170;-75
2021/01/11 11:13:50;;;;;;;31.33;13.40;;;2.10;99.90;;;;;;4370262;32;20152;-73
2021/01/11 11:16:17;;;;;;;30.33;14.20;;;2.10;99.90;;;;;;4372826;32;20213;-74
2021/01/11 11:18:44;;;;;;;30.43;13.80;;;2.10;99.90;;;;;;4372094;32;20648;-72
2021/01/11 11:21:11;;;;;;;27.60;12.70;;;2.00;99.90;;;;;;4370529;32;20149;-71
2021/01/11 11:23:40;;;;;;;31.57;14.10;;;1.90;99.90;;;;;;4371979;32;20152;-72
2021/01/11 11:26:08;;;;;;;34.10;14.93;;;1.90;99.90;;;;;;4365572;32;20143;-71
2021/01/11 11:28:35;;;;;;;35.30;15.37;;;2.00;99.90;;;;;;4365748;32;20144;-69
2021/01/11 11:31:04;;;;;;;38.53;15.77;;;2.00;99.90;;;;;;4364075;32;20396;-73
2021/01/11 11:33:31;;;;;;;35.37;15.93;;;2.00;99.90;;;;;;4363603;32;20148;-73
2021/01/11 11:35:58;;;;;;;36.27;16.17;;;2.10;99.90;;;;;;4377601;32;20150;-71
2021/01/11 11:38:25;;;;;;;38.00;15.33;;;2.00;99.90;;;;;;4379069;32;20460;-70
2021/01/11 11:40:52;;;;;;;36.97;16.63;;;2.00;99.90;;;;;;4379026;32;20155;-73
2021/01/11 11:43:19;;;;;;;33.03;15.43;;;1.90;99.90;;;;;;4365946;32;20211;-73
2021/01/11 11:45:45;;;;;;;35.50;16.43;;;2.00;99.90;;;;;;4364686;32;20159;-72
2021/01/11 11:48:13;;;;;;;35.07;15.00;;;2.10;99.90;;;;;;4364805;33;20144;-72
2021/01/11 11:50:41;;;;;;;34.90;15.83;;;2.30;99.90;;;;;;4367958;32;20210;-73
2021/01/11 11:53:07;;;;;;;39.23;16.37;;;2.70;99.70;;;;;;4378528;32;20155;-72
2021/01/11 11:55:35;;;;;;;38.57;16.30;;;3.20;98.20;;;;;;4378638;32;20182;-73
2021/01/11 11:58:04;;;;;;;35.47;16.33;;;3.80;96.10;;;;;;4380562;32;20194;-73
2021/01/11 12:00:30;;;;;;;31.93;14.43;;;4.30;93.90;;;;;;4380286;32;20156;-72
2021/01/11 12:03:14;;;;;;;32.00;14.67;;;4.60;92.90;;;;;;4380330;32;20552;-69
2021/01/11 12:05:41;;;;;;;33.60;15.30;;;4.70;91.10;;;;;;4378723;32;20140;-72
2021/01/11 12:08:07;;;;;;;33.77;15.07;;;4.90;91.10;;;;;;4380539;32;20449;-72
2021/01/11 12:10:34;;;;;;;31.93;15.47;;;5.00;89.90;;;;;;4377063;32;20259;-72
2021/01/11 12:13:00;;;;;;;31.90;15.33;;;4.60;90.60;;;;;;4378606;32;20140;-71
2021/01/11 12:15:26;;;;;;;33.77;15.37;;;4.10;91.40;;;;;;4375146;32;20148;-72
2021/01/11 12:17:53;;;;;;;40.20;16.60;;;3.70;92.20;;;;;;4370496;32;20174;-71
2021/01/11 12:20:20;;;;;;;36.93;16.70;;;3.50;92.90;;;;;;4365155;33;20220;-69
2021/01/11 12:22:46;;;;;;;36.87;16.33;;;3.10;93.80;;;;;;4363753;33;20427;-70
2021/01/11 12:25:13;;;;;;;38.00;16.27;;;2.80;95.20;;;;;;4363367;32;20144;-71
2021/01/11 12:27:40;;;;;;;39.90;15.90;;;2.80;95.70;;;;;;4366642;32;20144;-70
2021/01/11 12:30:07;;;;;;;37.80;16.93;;;2.80;95.50;;;;;;4366001;32;20467;-70
2021/01/11 12:32:36;;;;;;;36.10;15.90;;;2.60;96.10;;;;;;4366523;32;20242;-70
2021/01/11 12:35:03;;;;;;;35.63;17.10;;;2.40;96.40;;;;;;4368621;32;20136;-70
2021/01/11 12:37:29;;;;;;;38.70;16.23;;;2.30;96.90;;;;;;4378372;32;20143;-72
2021/01/11 12:39:56;;;;;;;37.73;16.20;;;2.10;97.10;;;;;;4379339;32;20215;-71
2021/01/11 12:42:22;;;;;;;38.87;15.67;;;2.10;97.90;;;;;;4382294;32;20144;-72
2021/01/11 12:44:49;;;;;;;36.57;15.23;;;2.10;97.80;;;;;;4378070;32;20312;-71
2021/01/11 12:47:15;;;;;;;34.77;16.03;;;2.00;97.70;;;;;;4365364;32;20148;-72
2021/01/11 12:49:43;;;;;;;39.50;16.70;;;2.10;98.30;;;;;;4361397;32;20552;-71